ペトロパブロフスク・カムチャツキー の空港の天気 - METARとTAF

ペトロパブロフスク・カムチャツキー空港 ( UHPP / PKC ) - ロシア ペトロパブロフスク・カムチャツキー
飛行場実況気象(Metar)
観測時間08/11 18:30 MAGT (08/11 07:30 UTC)
風向・風速南南東 4m/s
視程10km以上
天気現象
少しの雲 雲底高度 400m
気温15℃
湿度82%
気圧1014hPa
METARUHPP 110730Z 16004MPS 9999 FEW013 15/12 Q1014 R34L/CLRD70 NOSIG RMK QFE757/1009
過去の天気等 Google飛行場航空写真 Wunderground天気予報

過去48時間のMETAR

飛行場予報(TAF)
発表時間: 8/11 15:36 MAGT (8/11 04:36 UTC)
予報対象時間: 11日17時 MAGT ~ 12日23時 MAGT
風向・風速南 3m/s 瞬間風速 12m/s
視程10km以上
全天の4割程度の積乱雲 雲底高度 910m
11日20時 MAGT から
風向・風速北 3m/s 瞬間風速 8m/s
視程10km以上
なし
11日23時 MAGT ~ 12日8時 MAGT に一時的に
視程1000m
天気現象もや
全天を覆う雲 鉛直視程 90m
12日10時 MAGT から
風向・風速南南東 5m/s 瞬間風速 10m/s
視程10km以上
全天の4割程度の積乱雲 雲底高度 910m
12日17時 MAGT から
風向・風速南南東 5m/s 瞬間風速 12m/s
視程10km以上
全天の8割程度の雲 雲底高度 340m
全天を覆う積乱雲 雲底高度 610m
12日17時 MAGT ~ 12日20時 MAGT に一時的に
視程2000m
天気現象弱いしゅう雨 もや
全天を覆う雲 鉛直視程 150m
12日20時 MAGT から
風向・風速東南東 5m/s 瞬間風速 12m/s
視程5000m
天気現象弱いしゅう雨 もや
全天の8割程度の雲 雲底高度 210m
全天を覆う積乱雲 雲底高度 610m
12日20時 MAGT ~ 12日23時 MAGT に一時的に
視程1000m
天気現象しゅう雨 もや
全天を覆う雲 鉛直視程 90m
TAF UHPP 110436Z 1106/1212 17003G12MPS 9999 SCT030CB
FM110900 35003G08MPS 9999 NSC
TEMPO 1112/1121 1000 BR VV003
FM112300 16005G10MPS 9999 SCT030CB
FM120600 15005G12MPS 9999 BKN011 OVC020CB
TEMPO 1206/1209 2000 -SHRA BR VV005
FM120900 12005G12MPS 5000 -SHRA BR BKN007 OVC020CB
TEMPO 1209/1212 1000 SHRA BR VV003